Time;durP1;ratioP1;P1;durP2;ratioP2;P2;SDS_P1;SDS_P2;PMS_P1;PMS_P2;Temp;Humidity;BMP_temperature;BMP_pressure;BME280_temperature;BME280_humidity;BME280_pressure;Samples;Min_cycle;Max_cycle;Signal;HPM_P1;HPM_P2
2023/10/20 00:01:42;;;;;;;1.58;1.35;;;15.60;99.90;;;;;;4991828;28;20061;-37
2023/10/20 00:04:08;;;;;;;5.10;1.50;;;15.60;99.90;;;;;;4992049;28;20069;-37
2023/10/20 00:06:33;;;;;;;2.50;1.60;;;15.60;99.90;;;;;;4991769;28;20038;-37
2023/10/20 00:08:59;;;;;;;2.20;1.33;;;15.60;99.90;;;;;;4991910;28;20031;-37
2023/10/20 00:11:28;;;;;;;2.25;1.50;;;15.60;99.90;;;;;;4991847;28;20019;-37
2023/10/20 00:13:53;;;;;;;2.08;1.38;;;15.60;99.90;;;;;;4991742;28;20034;-36
2023/10/20 00:16:26;;;;;;;2.97;1.50;;;15.60;99.90;;;;;;4991517;28;20019;-37
2023/10/20 00:18:52;;;;;;;2.50;1.50;;;15.60;99.90;;;;;;4992050;28;20428;-35
2023/10/20 00:21:18;;;;;;;2.47;1.60;;;15.60;99.90;;;;;;4992050;28;20102;-35
2023/10/20 00:23:44;;;;;;;2.22;1.40;;;15.60;99.90;;;;;;4994735;28;20076;-35
2023/10/20 00:26:10;;;;;;;1.90;1.40;;;15.60;99.90;;;;;;4995632;28;20103;-35
2023/10/20 00:28:35;;;;;;;1.60;1.30;;;15.60;99.90;;;;;;4995822;28;20065;-35
2023/10/20 00:31:01;;;;;;;3.33;1.13;;;15.60;99.90;;;;;;4995600;28;20022;-35
2023/10/20 00:33:27;;;;;;;2.90;1.60;;;15.60;99.90;;;;;;4995700;28;20023;-35
2023/10/20 00:35:53;;;;;;;1.58;1.10;;;15.60;99.90;;;;;;4995515;28;20030;-35
2023/10/20 00:38:18;;;;;;;1.83;1.33;;;15.60;99.90;;;;;;4995570;28;20495;-35
2023/10/20 00:40:50;;;;;;;1.88;1.20;;;15.60;99.90;;;;;;4995560;28;20038;-36
2023/10/20 00:43:16;;;;;;;1.65;1.30;;;15.60;99.90;;;;;;4995259;28;20117;-37
2023/10/20 00:45:44;;;;;;;1.50;1.10;;;15.60;99.90;;;;;;4995270;28;20121;-38
2023/10/20 00:48:13;;;;;;;2.17;1.20;;;15.60;99.90;;;;;;4995301;28;20456;-37
2023/10/20 00:50:43;;;;;;;1.65;1.17;;;15.60;99.90;;;;;;4995293;28;20034;-37
2023/10/20 00:53:09;;;;;;;1.92;1.25;;;15.60;99.90;;;;;;4995427;28;20365;-37
2023/10/20 00:55:36;;;;;;;2.60;1.40;;;15.60;99.90;;;;;;4995091;28;20126;-37
2023/10/20 00:58:02;;;;;;;1.98;1.30;;;15.60;99.90;;;;;;4995028;28;20038;-37
2023/10/20 01:00:28;;;;;;;1.73;1.23;;;15.60;99.90;;;;;;4995124;28;20022;-39
2023/10/20 01:02:54;;;;;;;2.10;1.30;;;15.60;99.90;;;;;;4995052;28;20064;-37
2023/10/20 01:05:23;;;;;;;1.92;1.30;;;15.60;99.90;;;;;;4994961;28;20066;-37
2023/10/20 01:07:49;;;;;;;2.42;1.00;;;15.60;99.90;;;;;;4995001;28;20054;-37
2023/10/20 01:10:15;;;;;;;1.77;1.35;;;15.60;99.90;;;;;;4994955;28;20026;-37
2023/10/20 01:12:40;;;;;;;3.40;1.25;;;15.60;99.90;;;;;;4993444;28;20053;-37
2023/10/20 01:15:06;;;;;;;2.95;1.10;;;15.60;99.90;;;;;;4994912;28;20232;-36
2023/10/20 01:17:33;;;;;;;3.45;1.27;;;15.60;99.90;;;;;;4994959;28;20022;-37
2023/10/20 01:20:06;;;;;;;1.67;1.20;;;15.60;99.90;;;;;;4994876;28;20026;-36
2023/10/20 01:22:32;;;;;;;2.22;1.30;;;15.60;99.90;;;;;;4994753;28;20100;-37
2023/10/20 01:24:58;;;;;;;2.15;1.38;;;15.60;99.90;;;;;;4994501;28;20030;-37
2023/10/20 01:27:24;;;;;;;1.67;1.05;;;15.60;99.90;;;;;;4994692;28;20034;-36
2023/10/20 01:29:50;;;;;;;1.55;1.27;;;15.60;99.90;;;;;;4994585;28;20077;-37
2023/10/20 01:32:16;;;;;;;1.58;1.23;;;15.60;99.90;;;;;;4994488;28;20053;-37
2023/10/20 01:34:41;;;;;;;1.95;1.40;;;15.60;99.90;;;;;;4994222;28;20177;-38
2023/10/20 01:37:11;;;;;;;1.33;1.13;;;15.60;99.90;;;;;;4994443;28;20365;-35
2023/10/20 01:39:41;;;;;;;1.40;1.05;;;15.60;99.90;;;;;;4994398;28;20030;-35
2023/10/20 01:42:07;;;;;;;1.88;1.23;;;15.60;99.90;;;;;;4994215;28;20061;-36
2023/10/20 01:44:34;;;;;;;1.70;1.20;;;15.60;99.90;;;;;;4994997;28;20404;-35
2023/10/20 01:47:00;;;;;;;1.45;1.33;;;15.60;99.90;;;;;;4994135;28;20538;-36
2023/10/20 01:49:26;;;;;;;2.38;1.23;;;15.60;99.90;;;;;;4994283;28;20034;-35
2023/10/20 01:51:52;;;;;;;2.00;1.25;;;15.60;99.90;;;;;;4994123;28;20034;-35
2023/10/20 01:54:17;;;;;;;1.50;0.98;;;15.60;99.90;;;;;;4994011;28;20042;-36
2023/10/20 01:56:43;;;;;;;1.63;1.20;;;15.60;99.90;;;;;;4994031;28;20022;-36
2023/10/20 01:59:10;;;;;;;1.20;1.00;;;15.60;99.90;;;;;;4994113;28;20026;-35
2023/10/20 02:01:35;;;;;;;1.10;1.00;;;15.60;99.90;;;;;;4994105;28;20105;-35
2023/10/20 02:04:01;;;;;;;2.17;1.25;;;15.60;99.90;;;;;;4994057;28;20106;-35
2023/10/20 02:06:27;;;;;;;1.27;1.10;;;15.60;99.90;;;;;;4994335;28;20072;-35
2023/10/20 02:08:53;;;;;;;1.63;1.10;;;15.60;99.90;;;;;;4993836;28;20026;-35
2023/10/20 02:11:18;;;;;;;2.10;1.15;;;15.60;99.90;;;;;;4993871;28;20034;-37
2023/10/20 02:13:44;;;;;;;1.60;0.90;;;15.60;99.90;;;;;;4993760;28;20502;-38
2023/10/20 02:16:10;;;;;;;1.13;1.00;;;15.60;99.90;;;;;;4976117;28;20026;-35
2023/10/20 02:18:36;;;;;;;2.03;1.17;;;15.60;99.90;;;;;;4993772;28;20022;-35
2023/10/20 02:21:03;;;;;;;1.60;1.30;;;15.60;99.90;;;;;;4993734;28;20022;-35
2023/10/20 02:23:36;;;;;;;2.08;1.17;;;15.60;99.90;;;;;;4993518;28;20112;-36
2023/10/20 02:26:08;;;;;;;2.75;1.27;;;15.60;99.90;;;;;;4993555;28;20026;-35
2023/10/20 02:28:35;;;;;;;2.20;1.08;;;15.60;99.90;;;;;;4993811;28;20597;-35
2023/10/20 02:31:09;;;;;;;5.63;1.13;;;15.60;99.90;;;;;;4993826;28;20054;-36
2023/10/20 02:33:35;;;;;;;;;;;15.60;99.90;;;;;;4993823;28;20493;-35
2023/10/20 02:36:01;;;;;;;2.80;1.13;;;15.60;99.90;;;;;;4993068;28;19910;-35
2023/10/20 02:38:26;;;;;;;1.80;1.08;;;15.60;99.90;;;;;;4993354;28;20054;-35
2023/10/20 02:40:53;;;;;;;1.63;1.20;;;15.60;99.90;;;;;;4993423;28;20309;-35
2023/10/20 02:43:20;;;;;;;1.20;1.10;;;15.60;99.90;;;;;;4993077;28;20034;-36
2023/10/20 02:45:54;;;;;;;2.13;1.25;;;15.60;99.90;;;;;;4992494;28;20034;-35
2023/10/20 02:48:21;;;;;;;1.48;1.10;;;15.60;99.90;;;;;;4993125;28;20027;-36
2023/10/20 02:50:47;;;;;;;1.42;1.00;;;15.60;99.90;;;;;;4993146;28;20097;-38
2023/10/20 02:53:15;;;;;;;1.88;1.33;;;15.60;99.90;;;;;;4993075;28;20026;-38
2023/10/20 02:55:44;;;;;;;2.60;1.10;;;15.60;99.90;;;;;;4992899;28;20504;-38
2023/10/20 02:58:10;;;;;;;1.95;1.17;;;15.60;99.90;;;;;;4992916;28;20050;-38
2023/10/20 03:00:46;;;;;;;1.25;1.10;;;15.60;99.90;;;;;;4992948;28;20018;-38
2023/10/20 03:03:13;;;;;;;1.42;1.00;;;15.60;99.90;;;;;;4992822;28;20044;-38
2023/10/20 03:05:43;;;;;;;1.10;0.80;;;15.60;99.90;;;;;;4992749;28;20026;-38
2023/10/20 03:08:12;;;;;;;1.48;0.90;;;15.60;99.90;;;;;;4992781;28;20037;-38
2023/10/20 03:10:38;;;;;;;1.45;1.08;;;15.60;99.90;;;;;;4992597;28;20536;-38
2023/10/20 03:13:04;;;;;;;1.35;1.00;;;15.60;99.90;;;;;;4992607;28;20050;-38
2023/10/20 03:15:33;;;;;;;2.25;1.00;;;15.60;99.90;;;;;;4992377;28;20375;-38
2023/10/20 03:17:59;;;;;;;1.60;1.10;;;15.60;99.90;;;;;;4992853;28;20400;-38
2023/10/20 03:20:28;;;;;;;1.85;1.17;;;15.60;99.90;;;;;;4992605;28;20037;-39
2023/10/20 03:22:55;;;;;;;1.48;0.90;;;15.60;99.90;;;;;;4992498;28;20014;-39
2023/10/20 03:25:20;;;;;;;2.95;0.90;;;15.60;99.90;;;;;;4992394;28;20057;-41
2023/10/20 03:27:47;;;;;;;1.70;0.93;;;15.60;99.90;;;;;;4992400;28;20022;-39
2023/10/20 03:30:15;;;;;;;1.20;0.98;;;15.60;99.90;;;;;;4992388;28;20034;-39
2023/10/20 03:32:40;;;;;;;2.08;1.10;;;15.60;99.90;;;;;;4992321;28;20551;-40
2023/10/20 03:35:07;;;;;;;1.52;1.08;;;15.60;99.90;;;;;;4992210;28;20114;-39
2023/10/20 03:37:34;;;;;;;1.40;1.05;;;15.60;99.90;;;;;;4992365;28;20484;-39
2023/10/20 03:40:00;;;;;;;1.88;1.20;;;15.60;99.90;;;;;;4992318;28;20022;-39
2023/10/20 03:42:26;;;;;;;2.03;1.20;;;15.60;99.90;;;;;;4974611;28;20026;-39
2023/10/20 03:44:53;;;;;;;2.30;1.10;;;15.60;99.90;;;;;;4992136;28;20503;-39
2023/10/20 03:47:21;;;;;;;1.40;1.20;;;15.60;99.90;;;;;;4992140;28;20033;-37
2023/10/20 03:49:48;;;;;;;1.42;1.02;;;15.60;99.90;;;;;;4992152;28;20019;-37
2023/10/20 03:52:14;;;;;;;1.42;0.90;;;15.60;99.90;;;;;;4992016;28;20115;-37
2023/10/20 03:54:39;;;;;;;2.42;1.20;;;15.60;99.90;;;;;;4991905;28;20145;-36
2023/10/20 03:57:05;;;;;;;2.75;1.10;;;15.60;99.90;;;;;;4991800;28;20388;-37
2023/10/20 03:59:31;;;;;;;1.35;1.08;;;15.60;99.90;;;;;;4992034;28;20069;-37
2023/10/20 04:01:57;;;;;;;3.63;1.20;;;15.60;99.90;;;;;;4991916;28;20033;-37
2023/10/20 04:04:23;;;;;;;1.33;1.10;;;15.60;99.90;;;;;;4991975;28;20034;-37
2023/10/20 04:06:49;;;;;;;1.98;1.10;;;15.60;99.90;;;;;;4991813;28;20034;-39
2023/10/20 04:09:17;;;;;;;1.50;1.15;;;15.60;99.90;;;;;;4991864;28;20073;-37
2023/10/20 04:11:44;;;;;;;1.38;1.10;;;15.60;99.90;;;;;;4991786;28;20060;-37
2023/10/20 04:14:10;;;;;;;1.90;1.10;;;15.60;99.90;;;;;;4991739;28;20034;-37
2023/10/20 04:16:39;;;;;;;1.00;0.90;;;15.60;99.90;;;;;;4991765;28;20034;-37
2023/10/20 04:19:14;;;;;;;1.45;1.00;;;15.60;99.90;;;;;;4991908;28;20030;-38
2023/10/20 04:21:42;;;;;;;1.58;0.95;;;15.60;99.90;;;;;;4991933;28;20025;-36
2023/10/20 04:24:09;;;;;;;1.20;1.05;;;15.60;99.90;;;;;;4991625;28;20065;-37
2023/10/20 04:26:42;;;;;;;1.77;1.17;;;15.60;99.90;;;;;;4991685;28;20208;-37
2023/10/20 04:50:47;;;;;;;;;;;15.60;99.90;;;;;;4992067;28;20058;-38
2023/10/20 04:58:34;;;;;;;1.13;1.00;;;15.60;99.90;;;;;;4991580;28;20042;-39
2023/10/20 05:01:07;;;;;;;1.23;1.00;;;15.60;99.90;;;;;;4991580;28;20463;-36
2023/10/20 05:03:45;;;;;;;1.80;1.10;;;15.60;99.90;;;;;;4991506;28;20046;-37
2023/10/20 05:06:22;;;;;;;1.75;1.23;;;15.60;99.90;;;;;;4991313;28;20026;-37
2023/10/20 05:08:49;;;;;;;2.22;1.20;;;15.60;99.90;;;;;;4992781;28;20028;-37
2023/10/20 05:11:15;;;;;;;4.15;1.00;;;15.60;99.90;;;;;;4995171;28;20034;-37
2023/10/20 05:13:41;;;;;;;1.58;1.08;;;15.60;99.90;;;;;;4994893;28;20033;-38
2023/10/20 05:16:09;;;;;;;1.48;1.20;;;15.50;99.90;;;;;;4994704;28;20520;-38
2023/10/20 05:18:39;;;;;;;1.83;1.10;;;15.60;99.90;;;;;;4994821;28;20157;-38
2023/10/20 05:21:06;;;;;;;2.05;1.25;;;15.60;99.90;;;;;;4994865;28;20661;-37
2023/10/20 05:23:33;;;;;;;1.73;1.25;;;15.60;99.90;;;;;;4994788;28;20034;-37
2023/10/20 05:25:59;;;;;;;1.23;1.00;;;15.60;99.90;;;;;;4994536;28;20480;-38
2023/10/20 05:28:25;;;;;;;3.17;1.58;;;15.60;99.90;;;;;;4994704;28;20037;-38
2023/10/20 05:30:51;;;;;;;1.95;1.20;;;15.60;99.90;;;;;;4994575;28;20018;-37
2023/10/20 05:33:16;;;;;;;2.10;1.20;;;15.50;99.90;;;;;;4993240;28;20022;-37
2023/10/20 05:35:43;;;;;;;1.77;1.10;;;15.60;99.90;;;;;;4994371;28;20030;-40
2023/10/20 05:38:09;;;;;;;1.90;1.30;;;15.60;99.90;;;;;;4994416;28;20476;-37
2023/10/20 05:40:35;;;;;;;1.67;1.17;;;15.60;99.90;;;;;;4994491;28;20026;-37
2023/10/20 05:43:08;;;;;;;2.25;1.20;;;15.50;99.90;;;;;;4994232;28;20414;-37
2023/10/20 05:45:40;;;;;;;1.95;1.30;;;15.60;99.90;;;;;;4994250;28;20032;-38
2023/10/20 05:48:07;;;;;;;1.60;1.25;;;15.60;99.90;;;;;;4994427;28;20046;-37
2023/10/20 05:50:37;;;;;;;3.47;1.20;;;15.60;99.90;;;;;;4976867;28;20033;-37
2023/10/20 05:53:03;;;;;;;2.85;1.58;;;15.60;99.90;;;;;;4994191;28;20031;-37
2023/10/20 05:55:29;;;;;;;1.60;1.38;;;15.60;99.90;;;;;;4994048;28;20027;-38
2023/10/20 05:57:54;;;;;;;3.17;1.20;;;15.60;99.90;;;;;;4994072;28;20162;-37
2023/10/20 06:00:20;;;;;;;2.30;1.45;;;15.60;99.90;;;;;;4994338;28;20076;-37
2023/10/20 06:02:46;;;;;;;1.85;1.20;;;15.60;99.90;;;;;;4994005;28;20029;-38
2023/10/20 06:05:13;;;;;;;2.70;1.38;;;15.60;99.90;;;;;;4993962;28;20561;-38
2023/10/20 06:07:43;;;;;;;2.08;1.30;;;15.60;99.90;;;;;;4994028;28;20117;-36
2023/10/20 06:10:09;;;;;;;1.88;1.13;;;15.60;99.90;;;;;;4994005;28;20073;-37
2023/10/20 06:12:34;;;;;;;1.75;1.30;;;15.50;99.90;;;;;;4994235;28;20046;-38
2023/10/20 06:15:00;;;;;;;1.55;1.10;;;15.60;99.90;;;;;;4993620;28;20026;-38
2023/10/20 06:17:26;;;;;;;1.73;1.20;;;15.60;99.90;;;;;;4993707;28;20028;-36
2023/10/20 06:19:51;;;;;;;1.80;1.30;;;15.60;99.90;;;;;;4992903;28;20026;-37
2023/10/20 06:22:17;;;;;;;1.83;1.15;;;15.60;99.90;;;;;;4993484;28;20023;-37
2023/10/20 06:24:43;;;;;;;1.90;1.30;;;15.60;99.90;;;;;;4993581;28;20027;-39
2023/10/20 06:27:11;;;;;;;2.47;1.60;;;15.60;99.90;;;;;;4993419;28;20026;-37
2023/10/20 06:29:47;;;;;;;3.38;1.50;;;15.60;99.90;;;;;;4993630;28;20545;-38
2023/10/20 06:35:09;;;;;;;1.90;1.20;;;15.60;99.90;;;;;;4984313;28;20038;-37
2023/10/20 06:40:03;;;;;;;1.98;1.50;;;15.60;99.90;;;;;;4993683;28;20088;-37
2023/10/20 06:42:29;;;;;;;2.10;1.20;;;15.50;99.90;;;;;;4993199;28;20022;-38
2023/10/20 06:44:55;;;;;;;1.70;1.20;;;15.50;99.90;;;;;;4993325;28;20053;-38
2023/10/20 06:47:21;;;;;;;1.77;1.30;;;15.60;99.90;;;;;;4993183;28;20519;-36
2023/10/20 06:49:47;;;;;;;3.38;1.50;;;15.60;99.90;;;;;;4993217;28;20446;-37
2023/10/20 06:52:17;;;;;;;2.20;1.30;;;15.60;99.90;;;;;;4992929;28;20026;-37
2023/10/20 06:54:48;;;;;;;2.25;1.40;;;15.60;99.90;;;;;;4993111;28;20042;-39
2023/10/20 06:57:14;;;;;;;1.65;1.27;;;15.60;99.90;;;;;;4992987;28;20033;-37
2023/10/20 06:59:40;;;;;;;1.60;1.33;;;15.60;99.90;;;;;;4991705;28;20113;-37
2023/10/20 07:02:06;;;;;;;2.67;1.38;;;15.60;99.90;;;;;;4993320;28;20050;-37
2023/10/20 07:04:32;;;;;;;2.20;1.38;;;15.60;99.90;;;;;;4992909;28;20558;-39
2023/10/20 07:06:58;;;;;;;2.10;1.50;;;15.60;99.90;;;;;;4993100;28;20061;-37
2023/10/20 07:09:23;;;;;;;2.50;1.30;;;15.60;99.90;;;;;;4992832;28;20030;-38
2023/10/20 07:11:49;;;;;;;2.20;1.48;;;15.60;99.90;;;;;;4992746;28;20089;-37
2023/10/20 07:14:15;;;;;;;1.77;1.25;;;15.60;99.90;;;;;;4992589;28;20026;-37
2023/10/20 07:16:41;;;;;;;4.18;1.45;;;15.60;99.90;;;;;;4992505;28;20424;-37
2023/10/20 07:19:08;;;;;;;2.75;1.40;;;15.60;99.90;;;;;;4992625;28;20091;-37
2023/10/20 07:21:34;;;;;;;1.75;1.20;;;15.60;99.90;;;;;;4992570;28;20053;-37
2023/10/20 07:24:03;;;;;;;2.33;1.55;;;15.60;99.90;;;;;;4992483;28;20387;-38
2023/10/20 07:26:29;;;;;;;2.80;1.42;;;15.60;99.90;;;;;;4992394;28;20026;-37
2023/10/20 07:28:54;;;;;;;2.08;1.20;;;15.60;99.90;;;;;;4992590;28;20033;-37
2023/10/20 07:31:21;;;;;;;2.25;1.50;;;15.60;99.90;;;;;;4992242;28;20023;-37
2023/10/20 07:33:50;;;;;;;1.90;1.40;;;15.50;99.90;;;;;;4992250;28;20025;-38
2023/10/20 07:36:16;;;;;;;2.83;1.38;;;15.60;99.90;;;;;;4992222;28;20117;-37
2023/10/20 07:38:45;;;;;;;3.22;1.40;;;15.60;99.90;;;;;;4992517;28;20050;-37
2023/10/20 07:41:12;;;;;;;1.88;1.42;;;15.60;99.90;;;;;;4992288;28;20018;-37
2023/10/20 07:43:39;;;;;;;1.80;1.40;;;15.60;99.90;;;;;;4992600;28;20385;-40
2023/10/20 07:46:05;;;;;;;2.13;1.65;;;15.60;99.90;;;;;;4992019;28;20484;-39
2023/10/20 07:48:32;;;;;;;2.80;1.40;;;15.60;99.90;;;;;;4992089;28;20080;-39
2023/10/20 07:51:01;;;;;;;2.80;1.70;;;15.60;99.90;;;;;;4992126;28;20103;-38
2023/10/20 07:53:29;;;;;;;10.55;6.63;;;15.60;99.90;;;;;;4992078;28;20080;-40
2023/10/20 07:55:55;;;;;;;8.82;5.40;;;15.50;99.90;;;;;;4974486;28;20566;-42
2023/10/20 07:58:20;;;;;;;7.78;4.78;;;15.40;99.90;;;;;;4992089;28;20034;-40
2023/10/20 08:00:46;;;;;;;7.38;5.30;;;15.40;99.90;;;;;;4992124;28;20038;-40
2023/10/20 08:03:12;;;;;;;7.32;4.97;;;15.40;99.90;;;;;;4992017;28;20094;-39
2023/10/20 08:05:37;;;;;;;7.43;4.70;;;15.40;99.90;;;;;;4992230;28;20398;-39
2023/10/20 08:08:04;;;;;;;12.65;5.38;;;15.50;99.90;;;;;;4992565;28;20033;-38
2023/10/20 08:10:30;;;;;;;7.50;4.57;;;15.40;99.90;;;;;;4992370;28;20032;-38
2023/10/20 08:12:56;;;;;;;8.35;5.15;;;15.50;99.90;;;;;;4992152;28;20102;-42
2023/10/20 08:15:22;;;;;;;7.13;4.43;;;15.50;99.90;;;;;;4991691;28;20113;-40
2023/10/20 08:17:50;;;;;;;8.20;4.28;;;15.50;99.90;;;;;;4991928;28;20516;-40
2023/10/20 08:20:16;;;;;;;6.90;4.55;;;15.50;99.90;;;;;;4991823;28;20499;-40
2023/10/20 08:22:43;;;;;;;7.63;3.97;;;15.50;99.90;;;;;;4991771;28;20029;-40
2023/10/20 08:25:08;;;;;;;6.50;3.90;;;15.50;99.90;;;;;;4991768;28;20042;-40
2023/10/20 08:27:34;;;;;;;6.13;3.60;;;15.60;99.90;;;;;;4991700;28;20061;-40
2023/10/20 08:30:00;;;;;;;7.03;3.97;;;15.60;99.90;;;;;;4991679;28;20085;-39
2023/10/20 08:32:26;;;;;;;7.65;3.65;;;15.60;99.90;;;;;;4991638;28;20445;-42
2023/10/20 08:34:52;;;;;;;5.25;3.60;;;15.60;99.90;;;;;;4991522;28;20444;-40
2023/10/20 08:37:18;;;;;;;5.50;3.58;;;15.60;99.90;;;;;;4991722;28;20109;-39
2023/10/20 08:39:44;;;;;;;7.53;3.88;;;15.60;99.90;;;;;;4991686;28;20419;-39
2023/10/20 08:42:17;;;;;;;6.18;3.80;;;15.60;99.90;;;;;;4991476;28;20037;-38
2023/10/20 08:44:44;;;;;;;4.38;3.13;;;15.60;99.90;;;;;;4994276;28;20029;-40
2023/10/20 08:47:12;;;;;;;7.57;5.05;;;15.60;99.90;;;;;;4995308;28;20460;-39
2023/10/20 08:49:39;;;;;;;8.98;5.68;;;15.70;99.90;;;;;;4995652;28;20053;-39
2023/10/20 08:52:08;;;;;;;6.40;5.28;;;15.60;99.90;;;;;;4995561;28;20031;-38
2023/10/20 08:54:34;;;;;;;8.18;6.07;;;15.60;99.90;;;;;;4995272;28;20022;-39
2023/10/20 08:57:00;;;;;;;9.68;5.50;;;15.60;99.90;;;;;;4995141;28;20034;-38
2023/10/20 08:59:25;;;;;;;7.18;5.32;;;15.60;99.90;;;;;;4995215;28;20031;-40
2023/10/20 09:01:51;;;;;;;6.22;4.55;;;15.60;99.90;;;;;;4995221;28;20476;-38
2023/10/20 09:04:24;;;;;;;7.55;4.97;;;15.60;99.90;;;;;;4995371;28;20019;-38
2023/10/20 09:06:50;;;;;;;6.97;4.63;;;15.60;99.90;;;;;;4994961;28;20026;-39
2023/10/20 09:09:17;;;;;;;5.85;4.32;;;15.70;99.90;;;;;;4995562;28;20022;-39
2023/10/20 09:11:43;;;;;;;5.75;4.60;;;15.70;99.90;;;;;;4994949;28;20030;-39
2023/10/20 09:14:12;;;;;;;4.90;4.05;;;15.70;99.90;;;;;;4994821;28;20519;-39
2023/10/20 09:16:44;;;;;;;6.20;4.03;;;15.70;99.90;;;;;;4994782;28;20109;-38
2023/10/20 09:19:12;;;;;;;4.95;4.13;;;15.70;99.90;;;;;;4994873;28;20033;-40
2023/10/20 09:21:39;;;;;;;5.00;3.85;;;15.70;99.90;;;;;;4993739;28;20152;-39
2023/10/20 09:24:07;;;;;;;4.97;3.47;;;15.70;99.90;;;;;;4994634;28;20420;-39
2023/10/20 09:26:38;;;;;;;5.65;3.78;;;15.80;99.90;;;;;;4994535;28;20034;-37
2023/10/20 09:29:06;;;;;;;4.78;3.50;;;15.80;99.90;;;;;;4994763;28;20101;-39
2023/10/20 09:31:33;;;;;;;4.18;3.28;;;15.70;99.90;;;;;;4994647;28;20107;-39
2023/10/20 09:33:59;;;;;;;5.68;3.50;;;15.80;99.90;;;;;;4994518;28;20026;-39
2023/10/20 09:36:28;;;;;;;5.72;3.30;;;15.80;99.90;;;;;;4994267;28;20511;-38
2023/10/20 09:38:56;;;;;;;5.53;2.88;;;15.80;99.90;;;;;;4994361;28;20539;-39
2023/10/20 09:41:23;;;;;;;5.43;3.00;;;15.80;99.90;;;;;;4994557;28;20203;-41
2023/10/20 09:43:53;;;;;;;7.32;3.20;;;15.80;99.90;;;;;;4994266;28;20037;-39
2023/10/20 09:46:38;;;;;;;4.20;2.90;;;15.90;99.90;;;;;;4994249;28;20504;-39
2023/10/20 09:49:39;;;;;;;;;;;15.90;99.90;;;;;;4994965;28;20287;-40
2023/10/20 09:52:05;;;;;;;3.55;2.65;;;16.00;99.90;;;;;;4972510;28;19910;-40
2023/10/20 09:54:33;;;;;;;6.38;2.70;;;16.10;99.90;;;;;;4989507;28;20050;-40
2023/10/20 09:56:59;;;;;;;2.97;2.50;;;16.10;99.90;;;;;;4994033;28;20018;-39
2023/10/20 09:59:27;;;;;;;6.75;2.90;;;16.10;99.90;;;;;;4994254;28;20380;-44
2023/10/20 10:01:55;;;;;;;3.92;2.58;;;16.10;99.90;;;;;;4993961;28;20428;-39
2023/10/20 10:04:31;;;;;;;3.92;2.28;;;16.10;99.90;;;;;;4994100;28;20049;-40
2023/10/20 10:07:04;;;;;;;5.15;2.63;;;16.10;99.90;;;;;;4993874;28;20015;-39
2023/10/20 10:09:42;;;;;;;4.47;2.20;;;16.10;99.90;;;;;;4994088;28;20026;-40
2023/10/20 10:12:10;;;;;;;3.85;2.38;;;16.10;99.90;;;;;;4994211;28;20266;-38
2023/10/20 10:14:36;;;;;;;4.13;2.30;;;16.10;99.90;;;;;;4993806;28;20054;-39
2023/10/20 10:17:11;;;;;;;4.65;1.83;;;16.10;99.90;;;;;;4993885;28;20364;-40
2023/10/20 10:19:51;;;;;;;3.03;2.13;;;16.10;99.90;;;;;;4993827;28;20136;-41
2023/10/20 10:22:24;;;;;;;3.03;2.03;;;16.10;99.90;;;;;;4993676;28;20034;-40
2023/10/20 10:24:54;;;;;;;2.60;1.80;;;16.10;99.90;;;;;;4993611;28;20061;-43
2023/10/20 10:27:22;;;;;;;3.00;1.98;;;16.10;99.90;;;;;;4993604;28;20053;-42
2023/10/20 10:29:58;;;;;;;3.88;2.30;;;16.10;99.90;;;;;;4993794;28;20423;-44
2023/10/20 10:32:31;;;;;;;2.88;1.92;;;16.10;99.90;;;;;;4993524;28;20045;-39
2023/10/20 10:34:58;;;;;;;2.25;1.65;;;16.10;99.90;;;;;;4993410;28;20026;-40
2023/10/20 10:37:35;;;;;;;3.72;2.28;;;16.10;99.90;;;;;;4993463;28;20026;-39
2023/10/20 10:40:07;;;;;;;3.88;1.98;;;16.10;99.90;;;;;;4993454;28;20502;-39
2023/10/20 10:42:40;;;;;;;2.17;1.83;;;16.10;99.90;;;;;;4993236;28;20037;-44
2023/10/20 10:45:30;;;;;;;3.78;1.80;;;16.10;99.90;;;;;;4993215;28;20026;-48
2023/10/20 10:48:14;;;;;;;2.65;1.98;;;16.00;99.90;;;;;;4993197;28;20029;-43
2023/10/20 10:50:42;;;;;;;2.90;1.88;;;16.10;99.90;;;;;;4993177;28;20491;-39
2023/10/20 10:53:08;;;;;;;2.60;1.73;;;16.10;99.90;;;;;;4993156;28;20042;-42
2023/10/20 10:55:35;;;;;;;2.20;1.67;;;16.00;99.90;;;;;;4992921;28;20387;-43
2023/10/20 10:58:02;;;;;;;2.30;1.67;;;16.00;99.90;;;;;;4992864;28;20157;-44
2023/10/20 11:00:29;;;;;;;3.55;1.80;;;16.00;99.90;;;;;;4993171;28;20353;-41
2023/10/20 11:02:57;;;;;;;3.03;1.83;;;16.00;99.90;;;;;;4993053;28;20034;-39
2023/10/20 11:05:24;;;;;;;2.38;1.55;;;16.00;99.90;;;;;;4992854;28;20097;-42
2023/10/20 11:08:01;;;;;;;2.05;1.60;;;16.00;99.90;;;;;;4992314;28;20054;-38
2023/10/20 11:10:27;;;;;;;2.10;1.38;;;16.00;99.90;;;;;;4992747;28;20029;-42
2023/10/20 11:12:57;;;;;;;2.22;1.55;;;16.00;99.90;;;;;;4992846;28;20193;-41
2023/10/20 11:15:29;;;;;;;2.33;1.52;;;16.00;99.90;;;;;;4992723;28;20460;-42
2023/10/20 11:18:01;;;;;;;2.30;1.63;;;16.00;99.90;;;;;;4992686;28;20049;-42
2023/10/20 11:20:31;;;;;;;2.88;1.38;;;16.00;99.90;;;;;;4992673;28;20058;-42
2023/10/20 11:22:57;;;;;;;1.80;1.50;;;16.00;99.90;;;;;;4992526;28;20031;-39
2023/10/20 11:25:24;;;;;;;1.90;1.50;;;16.00;99.90;;;;;;4992622;28;20022;-43
2023/10/20 11:27:54;;;;;;;2.42;1.50;;;16.00;99.90;;;;;;4992633;28;20031;-39
2023/10/20 11:30:24;;;;;;;1.70;1.40;;;16.00;99.90;;;;;;4992937;28;20033;-36
2023/10/20 11:32:52;;;;;;;3.50;1.42;;;16.00;99.90;;;;;;4992336;28;20039;-35
2023/10/20 11:35:20;;;;;;;1.50;1.27;;;16.00;99.90;;;;;;4992190;28;20041;-38
2023/10/20 11:37:46;;;;;;;1.98;1.50;;;16.00;99.90;;;;;;4992251;28;20081;-36
2023/10/20 11:40:13;;;;;;;1.77;1.42;;;16.00;99.90;;;;;;4992393;28;20498;-35
2023/10/20 11:42:38;;;;;;;2.30;1.55;;;16.00;99.90;;;;;;4992145;28;20034;-35
2023/10/20 11:45:05;;;;;;;2.95;1.40;;;16.00;99.90;;;;;;4992123;28;20030;-35
2023/10/20 11:47:31;;;;;;;1.73;1.20;;;16.00;99.90;;;;;;4992197;28;20023;-35
2023/10/20 11:49:57;;;;;;;1.95;1.40;;;16.00;99.90;;;;;;4992181;28;20085;-40
2023/10/20 11:52:24;;;;;;;1.92;1.33;;;16.00;99.90;;;;;;4992079;28;20035;-35
2023/10/20 11:54:49;;;;;;;1.90;1.30;;;16.10;99.90;;;;;;4991974;28;20018;-37
2023/10/20 11:57:15;;;;;;;2.08;1.20;;;16.10;99.90;;;;;;4992049;28;20057;-35
2023/10/20 11:59:41;;;;;;;1.88;1.23;;;16.10;99.90;;;;;;4992068;28;20059;-41
2023/10/20 12:02:07;;;;;;;1.98;1.40;;;16.10;99.90;;;;;;4992038;28;20034;-35
2023/10/20 12:04:33;;;;;;;1.83;1.30;;;16.10;99.90;;;;;;4992046;28;20026;-35
2023/10/20 12:06:58;;;;;;;3.47;0.68;;;16.10;99.90;;;;;;4990808;28;20034;-35
2023/10/20 12:09:24;;;;;;;0.30;0.20;;;16.10;99.90;;;;;;4989033;28;20484;-35
2023/10/20 12:11:50;;;;;;;0.30;0.13;;;16.20;99.90;;;;;;4973561;28;20062;-37
2023/10/20 12:14:15;;;;;;;0.20;0.17;;;16.20;99.90;;;;;;4991676;28;20484;-38
2023/10/20 12:16:42;;;;;;;0.28;0.20;;;16.20;99.90;;;;;;4991804;28;20026;-35
2023/10/20 12:19:08;;;;;;;0.85;0.22;;;16.20;99.90;;;;;;4993788;28;20393;-35
2023/10/20 12:21:33;;;;;;;1.15;0.20;;;16.20;99.90;;;;;;4996074;28;20030;-39
2023/10/20 12:23:59;;;;;;;0.20;0.20;;;16.20;99.90;;;;;;4995984;28;20098;-35
2023/10/20 12:26:26;;;;;;;0.20;0.20;;;16.20;99.90;;;;;;4995811;28;20034;-35
2023/10/20 12:28:52;;;;;;;0.35;0.20;;;16.30;99.90;;;;;;4995826;28;20023;-35
2023/10/20 12:31:18;;;;;;;1.35;0.30;;;16.30;99.90;;;;;;4995844;28;20499;-37
2023/10/20 12:33:44;;;;;;;0.63;0.30;;;16.30;99.90;;;;;;4995694;28;20034;-39
2023/10/20 12:36:13;;;;;;;0.52;0.22;;;16.30;99.90;;;;;;4995427;28;20037;-36
2023/10/20 12:38:39;;;;;;;0.30;0.20;;;16.30;99.90;;;;;;4996108;28;20434;-37
2023/10/20 12:41:05;;;;;;;1.17;0.20;;;16.30;99.90;;;;;;4995798;28;20089;-35
2023/10/20 12:43:31;;;;;;;0.50;0.20;;;16.30;99.90;;;;;;4995519;28;20030;-35
2023/10/20 12:45:56;;;;;;;0.30;0.20;;;16.40;99.90;;;;;;4995488;28;20034;-35
2023/10/20 12:48:22;;;;;;;0.40;0.30;;;16.30;99.90;;;;;;4995354;28;20033;-34
2023/10/20 12:50:48;;;;;;;0.85;0.20;;;16.40;99.90;;;;;;4995531;28;20038;-35
2023/10/20 12:53:13;;;;;;;0.10;0.10;;;16.40;99.90;;;;;;4995566;28;20031;-40
2023/10/20 12:55:39;;;;;;;0.95;0.15;;;16.40;99.90;;;;;;4995142;28;20030;-43
2023/10/20 12:58:05;;;;;;;0.38;0.22;;;16.40;99.90;;;;;;4995265;28;20029;-39
2023/10/20 13:00:30;;;;;;;1.13;0.15;;;16.40;99.90;;;;;;4995261;28;20388;-39
2023/10/20 13:02:56;;;;;;;0.30;0.20;;;16.50;99.90;;;;;;4995178;28;20391;-39
2023/10/20 13:05:22;;;;;;;1.55;0.20;;;16.50;99.90;;;;;;4995082;28;20081;-41
2023/10/20 13:07:50;;;;;;;0.45;0.20;;;16.50;99.90;;;;;;4995042;28;20105;-39
2023/10/20 13:10:16;;;;;;;0.55;0.20;;;16.40;99.90;;;;;;4995330;28;20409;-40
2023/10/20 13:12:41;;;;;;;0.32;0.20;;;16.50;99.90;;;;;;4995036;28;20027;-39
2023/10/20 13:15:09;;;;;;;1.38;0.20;;;16.40;99.90;;;;;;4993549;28;20048;-41
2023/10/20 13:17:35;;;;;;;0.40;0.20;;;16.50;99.90;;;;;;4994785;28;20466;-39
2023/10/20 13:20:01;;;;;;;0.20;0.10;;;16.40;99.90;;;;;;4994887;28;20027;-39
2023/10/20 13:22:27;;;;;;;1.30;0.32;;;16.50;99.90;;;;;;4994978;28;20492;-39